Sentinel, North Dakota
Current Conditions -  °F | °C
As of 1:35 PM on Thursday 29 Jan 2015 (Local Time) from K20U Reporting Station
Clear Clear  
Wind Chill: 31°   Ceiling: Unl
Heat Index: 36°   Visibility: 10mi
Dew Point: 23°   Wind: 6mph
Humidity: 60%   Direction: 250°WSW
Pressure: 30.39"   Gusts: NA
Location:  46.8047°N, 103.735°W
Report Text: K20U 292035Z AUTO 25005KT 10SM CLR 02/M05 A3039 RMK AO2
Loading
Personal Weather Stations






























Interactive Weather Map New forecast layout! Learn more

10-Day Weather Forecast

Advertisements
Track Severe Weather on mobile